createdAt,value
2023-09-24T00:00:17.752Z,65
2023-09-24T00:02:48.632Z,66
2023-09-24T00:05:20.143Z,66
2023-09-24T00:07:51.212Z,66
2023-09-24T00:10:22.124Z,66
2023-09-24T00:12:53.114Z,66
2023-09-24T00:15:23.676Z,65
2023-09-24T00:17:55.284Z,66
2023-09-24T00:20:24.485Z,65
2023-09-24T00:22:55.762Z,65
2023-09-24T00:25:27.588Z,65
2023-09-24T00:27:58.721Z,66
2023-09-24T00:30:29.458Z,65
2023-09-24T00:33:00.128Z,65
2023-09-24T00:35:31.073Z,65
2023-09-24T00:38:02.115Z,65
2023-09-24T00:40:32.760Z,65
2023-09-24T00:43:03.520Z,65
2023-09-24T00:45:34.210Z,68
2023-09-24T00:48:03.542Z,68
2023-09-24T00:50:35.286Z,68
2023-09-24T00:53:06.312Z,69
2023-09-24T00:55:37.354Z,69
2023-09-24T00:58:08.186Z,69
2023-09-24T01:00:39.246Z,70
2023-09-24T01:03:10.418Z,70
2023-09-24T01:05:41.314Z,70
2023-09-24T01:08:12.163Z,71
2023-09-24T01:10:41.246Z,70
2023-09-24T01:13:11.620Z,71
2023-09-24T01:15:42.113Z,72
2023-09-24T01:18:12.772Z,72
2023-09-24T01:20:41.713Z,71
2023-09-24T01:23:12.303Z,71
2023-09-24T01:25:42.810Z,72
2023-09-24T01:28:13.615Z,71
2023-09-24T01:30:44.465Z,72
2023-09-24T01:33:15.020Z,73
2023-09-24T01:35:43.888Z,74
2023-09-24T01:38:15.085Z,73
2023-09-24T01:40:46.491Z,73
2023-09-24T01:43:16.914Z,74
2023-09-24T01:45:47.758Z,76
2023-09-24T01:48:18.878Z,75
2023-09-24T01:50:48.627Z,75
2023-09-24T01:53:18.802Z,75
2023-09-24T01:55:49.288Z,75
2023-09-24T01:58:20.055Z,76
2023-09-24T02:00:50.574Z,77
2023-09-24T02:03:19.969Z,77
2023-09-24T02:05:50.749Z,76
2023-09-24T02:08:21.537Z,76
2023-09-24T02:10:52.626Z,78
2023-09-24T02:13:23.551Z,78
2023-09-24T02:15:54.951Z,77
2023-09-24T02:18:24.527Z,78
2023-09-24T02:20:55.870Z,77
2023-09-24T02:23:27.326Z,77
2023-09-24T02:25:58.283Z,77
2023-09-24T02:28:29.206Z,76
2023-09-24T02:30:59.886Z,76
2023-09-24T02:33:31.175Z,76
2023-09-24T02:36:02.213Z,76
2023-09-24T02:38:33.251Z,75
2023-09-24T02:41:04.489Z,75
2023-09-24T02:43:36.299Z,75
2023-09-24T02:46:07.549Z,75
2023-09-24T02:48:38.651Z,76
2023-09-24T02:51:10.063Z,73
2023-09-24T02:53:40.997Z,74
2023-09-24T02:56:12.174Z,73
2023-09-24T02:58:43.008Z,73
2023-09-24T03:01:13.985Z,73
2023-09-24T03:03:44.787Z,73
2023-09-24T03:06:16.172Z,73
2023-09-24T03:08:47.392Z,73
2023-09-24T03:11:18.053Z,73
2023-09-24T03:13:48.789Z,73
2023-09-24T03:16:20.105Z,72
2023-09-24T03:18:52.884Z,73
2023-09-24T03:21:24.144Z,76
2023-09-24T03:23:55.291Z,74
2023-09-24T03:26:26.442Z,74
2023-09-24T03:28:57.508Z,74
2023-09-24T03:31:28.583Z,74
2023-09-24T03:33:59.186Z,75
2023-09-24T03:36:29.567Z,75
2023-09-24T03:39:01.039Z,74
2023-09-24T03:41:32.410Z,74
2023-09-24T03:44:02.932Z,74
2023-09-24T03:46:33.548Z,74
2023-09-24T03:49:04.901Z,74
2023-09-24T03:51:35.891Z,74
2023-09-24T03:54:07.117Z,74
2023-09-24T03:56:37.851Z,73
2023-09-24T03:59:08.667Z,74
2023-09-24T04:01:40.392Z,75
2023-09-24T04:04:10.950Z,75
2023-09-24T04:06:41.921Z,73
2023-09-24T04:09:12.187Z,75
2023-09-24T04:11:43.053Z,75
2023-09-24T04:14:13.641Z,76
2023-09-24T04:16:45.308Z,75
2023-09-24T04:19:16.411Z,74
2023-09-24T04:21:46.873Z,73
2023-09-24T04:24:18.205Z,73
2023-09-24T04:26:48.928Z,71
2023-09-24T04:29:19.965Z,72
2023-09-24T04:31:50.623Z,72
2023-09-24T04:34:21.406Z,72
2023-09-24T04:36:51.593Z,73
2023-09-24T04:39:22.285Z,73
2023-09-24T04:41:53.304Z,73
2023-09-24T04:44:23.508Z,72
2023-09-24T04:46:54.231Z,73
2023-09-24T04:49:25.076Z,73
2023-09-24T04:51:56.111Z,73
2023-09-24T04:54:27.137Z,72
2023-09-24T04:56:58.201Z,72
2023-09-24T04:59:29.148Z,72
2023-09-24T05:01:59.876Z,72
2023-09-24T05:04:30.641Z,70
2023-09-24T05:07:00.863Z,69
2023-09-24T05:09:31.741Z,68
2023-09-24T05:12:02.755Z,69
2023-09-24T05:14:33.518Z,68
2023-09-24T05:17:04.067Z,68
2023-09-24T05:19:35.174Z,68
2023-09-24T05:22:05.435Z,68
2023-09-24T05:24:36.723Z,70
2023-09-24T05:27:07.086Z,69
2023-09-24T05:29:37.395Z,70
2023-09-24T05:32:08.322Z,70
2023-09-24T05:34:39.363Z,70
2023-09-24T05:37:10.041Z,70
2023-09-24T05:39:40.416Z,71
2023-09-24T05:42:11.215Z,71
2023-09-24T05:44:42.590Z,72
2023-09-24T05:47:12.963Z,72
2023-09-24T05:49:43.450Z,73
2023-09-24T05:52:13.682Z,73
2023-09-24T05:54:44.539Z,72
2023-09-24T05:57:15.347Z,72
2023-09-24T05:59:45.968Z,73
2023-09-24T06:02:16.548Z,73
2023-09-24T06:04:48.089Z,73
2023-09-24T06:07:19.239Z,73
2023-09-24T06:09:49.738Z,73
2023-09-24T06:12:19.064Z,72
2023-09-24T06:14:49.635Z,73
2023-09-24T06:17:19.636Z,70
2023-09-24T06:19:49.597Z,72
2023-09-24T06:22:19.682Z,73
2023-09-24T06:24:50.373Z,72
2023-09-24T06:27:19.529Z,73
2023-09-24T06:29:49.546Z,72
2023-09-24T06:32:20.898Z,71
2023-09-24T06:34:51.696Z,71
2023-09-24T06:37:22.373Z,72
2023-09-24T06:39:53.119Z,71
2023-09-24T06:42:23.703Z,71
2023-09-24T06:44:54.489Z,71
2023-09-24T06:47:24.982Z,70
2023-09-24T06:49:55.571Z,69
2023-09-24T06:52:26.561Z,69
2023-09-24T06:54:56.030Z,69
2023-09-24T06:57:27.146Z,68
2023-09-24T06:59:57.515Z,68
2023-09-24T07:02:28.154Z,69
2023-09-24T07:04:58.715Z,69
2023-09-24T07:07:29.382Z,69
2023-09-24T07:09:59.722Z,68
2023-09-24T07:12:30.912Z,68
2023-09-24T07:15:01.422Z,67
2023-09-24T07:17:31.941Z,67
2023-09-24T07:20:04.738Z,66
2023-09-24T07:22:35.845Z,66
2023-09-24T07:25:06.469Z,66
2023-09-24T07:27:37.171Z,65
2023-09-24T07:30:08.074Z,65
2023-09-24T07:32:39.179Z,66
2023-09-24T07:35:08.056Z,65
2023-09-24T07:37:39.173Z,65
2023-09-24T07:40:10.048Z,64
2023-09-24T07:42:42.526Z,64
2023-09-24T07:45:11.499Z,65
2023-09-24T07:47:41.791Z,65
2023-09-24T07:50:12.830Z,65
2023-09-24T07:52:43.182Z,65
2023-09-24T07:55:13.622Z,65
2023-09-24T07:57:44.376Z,65
2023-09-24T08:00:14.781Z,65
2023-09-24T08:02:45.472Z,65
2023-09-24T08:05:16.127Z,64
2023-09-24T08:07:46.381Z,64
2023-09-24T08:10:16.955Z,64
2023-09-24T08:12:47.602Z,65
2023-09-24T08:15:18.728Z,65
2023-09-24T08:17:48.963Z,65
2023-09-24T08:20:20.328Z,65
2023-09-24T08:22:50.517Z,64
2023-09-24T08:25:21.552Z,63
2023-09-24T08:27:52.204Z,64
2023-09-24T08:30:21.874Z,62
2023-09-24T08:32:52.352Z,62
2023-09-24T08:35:22.918Z,62
2023-09-24T08:37:53.863Z,63
2023-09-24T08:40:23.093Z,62
2023-09-24T08:42:53.759Z,62
2023-09-24T08:45:24.742Z,62
2023-09-24T08:47:55.852Z,61
2023-09-24T08:50:26.310Z,61
2023-09-24T08:52:58.076Z,61
2023-09-24T08:55:28.468Z,61
2023-09-24T08:57:57.719Z,61
2023-09-24T09:00:28.520Z,62
2023-09-24T09:03:00.119Z,62
2023-09-24T09:05:30.197Z,63
2023-09-24T09:08:00.537Z,64
2023-09-24T09:10:31.608Z,64
2023-09-24T09:13:01.896Z,64
2023-09-24T09:15:33.028Z,64
2023-09-24T09:18:03.816Z,64
2023-09-24T09:20:34.363Z,64
2023-09-24T09:23:05.281Z,64
2023-09-24T09:25:35.820Z,64
2023-09-24T09:28:06.224Z,64
2023-09-24T09:30:36.733Z,63
2023-09-24T09:33:07.220Z,63
2023-09-24T09:35:38.013Z,63
2023-09-24T09:38:08.527Z,64
2023-09-24T09:40:38.875Z,63
2023-09-24T09:43:09.350Z,63
2023-09-24T09:45:40.205Z,63
2023-09-24T09:48:10.746Z,62
2023-09-24T09:50:42.217Z,62
2023-09-24T09:53:12.907Z,61
2023-09-24T09:55:43.087Z,61
2023-09-24T09:58:21.903Z,61
2023-09-24T10:00:44.408Z,61
2023-09-24T10:03:15.373Z,61
2023-09-24T10:05:45.786Z,60
2023-09-24T10:08:16.116Z,59
2023-09-24T10:10:46.792Z,59
2023-09-24T10:13:17.172Z,60
2023-09-24T10:15:47.749Z,60
2023-09-24T10:18:18.194Z,60
2023-09-24T10:20:48.595Z,61
2023-09-24T10:23:19.133Z,61
2023-09-24T10:25:50.449Z,60
2023-09-24T10:28:27.728Z,59
2023-09-24T10:30:58.299Z,60
2023-09-24T10:33:28.861Z,59
2023-09-24T10:35:59.022Z,60
2023-09-24T10:38:30.116Z,61
2023-09-24T10:41:00.115Z,61
2023-09-24T10:43:30.287Z,61
2023-09-24T10:46:00.600Z,61
2023-09-24T10:48:44.370Z,61
2023-09-24T10:51:02.096Z,61
2023-09-24T10:53:33.082Z,61
2023-09-24T10:56:11.286Z,62
2023-09-24T10:58:34.012Z,62
2023-09-24T11:01:04.478Z,63
2023-09-24T11:03:35.838Z,63
2023-09-24T11:06:06.259Z,63
2023-09-24T11:08:37.027Z,63
2023-09-24T11:11:07.797Z,64
2023-09-24T11:13:38.449Z,64
2023-09-24T11:16:08.858Z,64
2023-09-24T11:18:39.362Z,65
2023-09-24T11:21:10.617Z,65
2023-09-24T11:23:43.700Z,65
2023-09-24T11:26:11.680Z,65
2023-09-24T11:28:42.849Z,65
2023-09-24T11:31:13.868Z,65
2023-09-24T11:33:44.413Z,65
2023-09-24T11:36:15.580Z,65
2023-09-24T11:38:46.294Z,65
2023-09-24T11:41:18.995Z,65
2023-09-24T11:43:49.474Z,64
2023-09-24T11:46:19.984Z,64
2023-09-24T11:48:51.170Z,64
2023-09-24T11:51:21.395Z,64
2023-09-24T11:53:51.547Z,63
2023-09-24T11:56:21.762Z,63
2023-09-24T11:58:52.150Z,64
2023-09-24T12:01:22.468Z,64
2023-09-24T12:03:52.966Z,64
2023-09-24T12:06:23.345Z,63
2023-09-24T12:08:52.734Z,63
2023-09-24T12:11:22.814Z,63
2023-09-24T12:13:53.179Z,63
2023-09-24T12:16:24.155Z,63
2023-09-24T12:18:55.057Z,63
2023-09-24T12:21:25.813Z,63
2023-09-24T12:23:56.141Z,63
2023-09-24T12:26:26.651Z,64
2023-09-24T12:29:03.274Z,63
2023-09-24T12:31:34.043Z,63
2023-09-24T12:34:04.594Z,62
2023-09-24T12:36:34.897Z,63
2023-09-24T12:39:05.330Z,63
2023-09-24T12:41:36.147Z,63
2023-09-24T12:44:06.509Z,64
2023-09-24T12:46:36.818Z,64
2023-09-24T12:49:05.854Z,65
2023-09-24T12:51:37.329Z,66
2023-09-24T12:54:08.286Z,66
2023-09-24T12:56:37.084Z,67
2023-09-24T12:59:08.167Z,67
2023-09-24T13:01:39.028Z,67
2023-09-24T13:04:10.037Z,67
2023-09-24T13:06:40.927Z,67
2023-09-24T13:09:11.420Z,67
2023-09-24T13:11:42.017Z,68
2023-09-24T13:14:13.052Z,68
2023-09-24T13:16:44.446Z,68
2023-09-24T13:19:15.576Z,68
2023-09-24T13:21:47.070Z,68
2023-09-24T13:24:17.016Z,68
2023-09-24T13:26:48.584Z,68
2023-09-24T13:29:18.557Z,67
2023-09-24T13:31:49.613Z,66
2023-09-24T13:34:20.070Z,67
2023-09-24T13:36:49.956Z,67
2023-09-24T13:39:20.752Z,66
2023-09-24T13:41:51.194Z,67
2023-09-24T13:44:22.095Z,67
2023-09-24T13:46:53.124Z,67
2023-09-24T13:49:24.001Z,67
2023-09-24T13:51:55.466Z,67
2023-09-24T13:54:25.627Z,66
2023-09-24T13:56:59.175Z,66
2023-09-24T13:59:29.625Z,66
2023-09-24T14:02:00.128Z,66
2023-09-24T14:04:30.534Z,67
2023-09-24T14:07:01.585Z,67
2023-09-24T14:09:31.733Z,68
2023-09-24T14:12:02.486Z,68
2023-09-24T14:14:33.430Z,67
2023-09-24T14:17:03.891Z,67
2023-09-24T14:19:34.767Z,67
2023-09-24T14:22:05.821Z,66
2023-09-24T14:24:36.573Z,66
2023-09-24T14:27:07.317Z,66
2023-09-24T14:29:37.960Z,66
2023-09-24T14:32:08.611Z,66
2023-09-24T14:34:38.079Z,67
2023-09-24T14:37:08.204Z,67
2023-09-24T14:39:39.290Z,68
2023-09-24T14:42:09.661Z,69
2023-09-24T14:44:40.430Z,69
2023-09-24T14:47:09.379Z,68
2023-09-24T14:49:39.800Z,69
2023-09-24T14:52:10.050Z,70
2023-09-24T14:54:40.538Z,71
2023-09-24T14:57:11.001Z,70
2023-09-24T14:59:41.252Z,70
2023-09-24T15:02:11.549Z,70
2023-09-24T15:04:41.781Z,70
2023-09-24T15:07:11.782Z,70
2023-09-24T15:09:42.364Z,70
2023-09-24T15:12:13.003Z,70
2023-09-24T15:14:43.679Z,70
2023-09-24T15:17:14.200Z,70
2023-09-24T15:19:45.596Z,70
2023-09-24T15:22:16.025Z,71
2023-09-24T15:24:47.193Z,70
2023-09-24T15:27:17.444Z,70
2023-09-24T15:29:48.764Z,71
2023-09-24T15:32:19.763Z,70
2023-09-24T15:34:50.389Z,71
2023-09-24T15:37:20.673Z,70
2023-09-24T15:39:51.890Z,70
2023-09-24T15:42:21.965Z,70
2023-09-24T15:44:52.225Z,70
2023-09-24T15:47:22.432Z,70
2023-09-24T15:49:53.892Z,70
2023-09-24T15:52:24.993Z,70
2023-09-24T15:54:55.497Z,71
2023-09-24T15:57:25.850Z,71
2023-09-24T15:59:57.079Z,70
2023-09-24T16:02:27.567Z,70
2023-09-24T16:04:58.410Z,70
2023-09-24T16:07:28.881Z,70
2023-09-24T16:09:59.339Z,70
2023-09-24T16:12:30.342Z,70
2023-09-24T16:15:01.320Z,70
2023-09-24T16:17:31.379Z,70
2023-09-24T16:20:01.723Z,70
2023-09-24T16:22:31.820Z,70
2023-09-24T16:25:02.213Z,70
2023-09-24T16:27:30.875Z,70
2023-09-24T16:30:01.007Z,70
2023-09-24T16:32:31.904Z,70
2023-09-24T16:35:02.904Z,70
2023-09-24T16:37:33.274Z,71
2023-09-24T16:40:03.555Z,70
2023-09-24T16:42:34.061Z,71
2023-09-24T16:45:04.711Z,71
2023-09-24T16:47:39.117Z,71
2023-09-24T16:50:09.151Z,70
2023-09-24T16:52:39.911Z,70
2023-09-24T16:55:10.927Z,70
2023-09-24T16:57:45.047Z,70
2023-09-24T17:00:15.215Z,70
2023-09-24T17:02:45.837Z,70
2023-09-24T17:05:16.123Z,70
2023-09-24T17:07:46.381Z,70
2023-09-24T17:10:16.845Z,70
2023-09-24T17:12:47.074Z,70
2023-09-24T17:15:18.400Z,70
2023-09-24T17:17:48.740Z,70
2023-09-24T17:20:19.918Z,69
2023-09-24T17:22:50.303Z,70
2023-09-24T17:25:21.003Z,70
2023-09-24T17:27:51.127Z,70
2023-09-24T17:30:21.530Z,70
2023-09-24T17:32:51.916Z,70
2023-09-24T17:35:22.668Z,70
2023-09-24T17:37:53.620Z,70
2023-09-24T17:40:23.689Z,71
2023-09-24T17:42:56.873Z,71
2023-09-24T17:45:27.492Z,72
2023-09-24T17:47:57.843Z,72
2023-09-24T17:50:28.689Z,72
2023-09-24T17:52:59.121Z,72
2023-09-24T17:55:29.272Z,73
2023-09-24T17:57:59.525Z,73
2023-09-24T18:00:29.799Z,76
2023-09-24T18:03:00.016Z,77
2023-09-24T18:05:30.159Z,76
2023-09-24T18:08:00.308Z,78
2023-09-24T18:10:30.539Z,77
2023-09-24T18:13:01.069Z,79
2023-09-24T18:15:31.198Z,79
2023-09-24T18:18:02.024Z,80
2023-09-24T18:20:32.357Z,79
2023-09-24T18:23:02.773Z,79
2023-09-24T18:25:33.041Z,77
2023-09-24T18:28:03.387Z,78
2023-09-24T18:30:33.824Z,78
2023-09-24T18:33:03.926Z,79
2023-09-24T18:35:34.092Z,81
2023-09-24T18:38:04.558Z,82
2023-09-24T18:40:34.872Z,82
2023-09-24T18:43:04.931Z,82
2023-09-24T18:45:35.367Z,83
2023-09-24T18:48:05.930Z,83
2023-09-24T18:50:36.223Z,83
2023-09-24T18:53:06.455Z,83
2023-09-24T18:55:37.215Z,83
2023-09-24T18:58:07.567Z,82
2023-09-24T19:00:36.413Z,82
2023-09-24T19:03:07.524Z,81
2023-09-24T19:05:37.684Z,80
2023-09-24T19:08:06.699Z,82
2023-09-24T19:10:36.958Z,83
2023-09-24T19:13:07.269Z,82
2023-09-24T19:15:37.017Z,84
2023-09-24T19:18:07.504Z,83
2023-09-24T19:20:37.819Z,84
2023-09-24T19:23:08.086Z,84
2023-09-24T19:25:38.686Z,84
2023-09-24T19:28:09.151Z,82
2023-09-24T19:30:39.785Z,83
2023-09-24T19:33:08.675Z,83
2023-09-24T19:35:39.202Z,84
2023-09-24T19:38:09.577Z,83
2023-09-24T19:40:40.351Z,83
2023-09-24T19:43:10.897Z,84
2023-09-24T19:45:41.801Z,83
2023-09-24T19:48:12.152Z,83
2023-09-24T19:50:42.332Z,84
2023-09-24T19:53:12.914Z,84
2023-09-24T19:55:43.311Z,84
2023-09-24T19:58:13.559Z,84
2023-09-24T20:00:45.297Z,85
2023-09-24T20:03:15.712Z,85
2023-09-24T20:05:45.942Z,84
2023-09-24T20:08:16.133Z,84
2023-09-24T20:10:46.362Z,85
2023-09-24T20:13:17.275Z,85
2023-09-24T20:15:47.567Z,86
2023-09-24T20:18:18.147Z,86
2023-09-24T20:20:48.270Z,85
2023-09-24T20:23:18.594Z,86
2023-09-24T20:25:49.043Z,85
2023-09-24T20:28:20.488Z,84
2023-09-24T20:30:48.213Z,85
2023-09-24T20:33:28.410Z,83
2023-09-24T20:35:47.054Z,84
2023-09-24T20:38:17.270Z,84
2023-09-24T20:40:47.620Z,85
2023-09-24T20:43:16.578Z,85
2023-09-24T20:45:46.837Z,85
2023-09-24T20:48:17.501Z,85
2023-09-24T20:50:47.653Z,85
2023-09-24T20:53:18.169Z,85
2023-09-24T20:55:49.781Z,85
2023-09-24T20:58:19.877Z,85
2023-09-24T21:00:50.624Z,85
2023-09-24T21:03:20.823Z,83
2023-09-24T21:05:51.303Z,82
2023-09-24T21:08:21.747Z,82
2023-09-24T21:10:52.036Z,82
2023-09-24T21:13:22.398Z,82
2023-09-24T21:15:53.119Z,83
2023-09-24T21:18:23.527Z,84
2023-09-24T21:20:53.950Z,85
2023-09-24T21:23:24.396Z,85
2023-09-24T21:25:57.082Z,85
2023-09-24T21:28:26.328Z,85
2023-09-24T21:30:57.032Z,85
2023-09-24T21:33:27.777Z,85
2023-09-24T21:35:57.591Z,84
2023-09-24T21:38:28.300Z,85
2023-09-24T21:40:58.964Z,85
2023-09-24T21:43:29.456Z,84
2023-09-24T21:46:00.462Z,85
2023-09-24T21:48:31.352Z,86
2023-09-24T21:51:01.658Z,85
2023-09-24T21:53:31.800Z,85
2023-09-24T21:56:01.978Z,84
2023-09-24T21:58:32.470Z,84
2023-09-24T22:01:02.947Z,84
2023-09-24T22:03:33.509Z,85
2023-09-24T22:06:03.809Z,86
2023-09-24T22:08:32.887Z,85
2023-09-24T22:11:03.224Z,85
2023-09-24T22:13:33.896Z,86
2023-09-24T22:16:04.538Z,84
2023-09-24T22:18:34.688Z,84
2023-09-24T22:21:04.759Z,85
2023-09-24T22:23:35.082Z,84
2023-09-24T22:26:05.187Z,83
2023-09-24T22:28:35.818Z,85
2023-09-24T22:31:06.536Z,85
2023-09-24T22:33:35.663Z,85
2023-09-24T22:36:06.009Z,85
2023-09-24T22:38:36.807Z,85
2023-09-24T22:41:07.494Z,85
2023-09-24T22:43:37.862Z,85
2023-09-24T22:46:06.765Z,84
2023-09-24T22:48:37.297Z,84
2023-09-24T22:51:07.611Z,84
2023-09-24T22:53:38.068Z,84
2023-09-24T22:56:08.386Z,85
2023-09-24T22:58:38.863Z,84
2023-09-24T23:01:09.363Z,84
2023-09-24T23:03:39.591Z,84
2023-09-24T23:06:09.979Z,87
2023-09-24T23:08:40.455Z,87
2023-09-24T23:11:11.027Z,86
2023-09-24T23:13:41.469Z,85
2023-09-24T23:16:12.109Z,84
2023-09-24T23:18:42.497Z,84
2023-09-24T23:21:13.134Z,83
2023-09-24T23:23:43.501Z,84
2023-09-24T23:26:14.270Z,85
2023-09-24T23:28:44.810Z,84
2023-09-24T23:31:15.454Z,84
2023-09-24T23:33:46.051Z,84
2023-09-24T23:36:16.448Z,84
2023-09-24T23:38:47.149Z,83
2023-09-24T23:41:17.377Z,85
2023-09-24T23:43:48.760Z,84
2023-09-24T23:46:19.313Z,84
2023-09-24T23:48:50.460Z,84
2023-09-24T23:51:19.478Z,84
2023-09-24T23:53:50.351Z,84
2023-09-24T23:56:21.080Z,85
2023-09-24T23:58:51.636Z,85
